createdAt,value
2018-06-29T00:00:45.479Z,24.34
2018-06-29T00:01:45.466Z,24.31
2018-06-29T00:02:45.454Z,24.33
2018-06-29T00:03:45.466Z,24.29
2018-06-29T00:04:45.431Z,24.31
2018-06-29T00:05:45.421Z,24.29
2018-06-29T00:06:45.408Z,24.30
2018-06-29T00:07:45.398Z,24.30
2018-06-29T00:08:45.413Z,24.31
2018-06-29T00:09:45.377Z,24.31
2018-06-29T00:10:45.365Z,24.30
2018-06-29T00:11:45.356Z,24.29
2018-06-29T00:12:45.342Z,24.29
2018-06-29T00:13:45.355Z,24.27
2018-06-29T00:14:45.320Z,24.27
2018-06-29T00:15:45.311Z,24.29
2018-06-29T00:16:45.298Z,24.33
2018-06-29T00:17:45.287Z,24.33
2018-06-29T00:18:45.299Z,24.26
2018-06-29T00:19:45.264Z,24.31
2018-06-29T00:20:45.255Z,24.31
2018-06-29T00:21:45.241Z,24.29
2018-06-29T00:22:45.233Z,24.26
2018-06-29T00:23:45.244Z,24.29
2018-06-29T00:24:45.208Z,24.29
2018-06-29T00:25:45.198Z,24.29
2018-06-29T00:26:45.186Z,24.31
2018-06-29T00:27:45.175Z,24.31
2018-06-29T00:28:45.187Z,24.26
2018-06-29T00:29:45.152Z,24.26
2018-06-29T00:30:45.139Z,24.26
2018-06-29T00:31:45.130Z,24.30
2018-06-29T00:32:45.120Z,24.29
2018-06-29T00:33:45.132Z,24.30
2018-06-29T00:34:45.097Z,24.27
2018-06-29T00:35:45.085Z,24.26
2018-06-29T00:36:45.073Z,24.26
2018-06-29T00:37:45.063Z,24.31
2018-06-29T00:38:45.079Z,24.23
2018-06-29T00:39:45.041Z,24.24
2018-06-29T00:40:45.030Z,24.23
2018-06-29T00:41:45.020Z,24.24
2018-06-29T00:42:45.008Z,24.23
2018-06-29T00:43:45.022Z,24.27
2018-06-29T00:44:44.984Z,24.21
2018-06-29T00:45:44.972Z,24.26
2018-06-29T00:46:44.962Z,24.11
2018-06-29T00:47:44.951Z,24.18
2018-06-29T00:48:44.963Z,24.15
2018-06-29T00:49:44.928Z,24.15
2018-06-29T00:50:44.918Z,24.26
2018-06-29T00:51:44.913Z,24.21
2018-06-29T00:52:44.894Z,24.14
2018-06-29T00:53:44.889Z,24.14
2018-06-29T00:54:44.896Z,24.16
2018-06-29T00:55:44.866Z,24.11
2018-06-29T00:56:44.851Z,24.11
2018-06-29T00:57:44.838Z,24.14
2018-06-29T00:58:44.829Z,24.19
2018-06-29T00:59:44.842Z,24.16
2018-06-29T01:00:44.806Z,24.16
2018-06-29T01:01:44.794Z,24.16
2018-06-29T01:02:44.784Z,24.16
2018-06-29T01:03:44.773Z,24.14
2018-06-29T01:04:44.785Z,24.14
2018-06-29T01:05:44.751Z,24.14
2018-06-29T01:06:44.738Z,24.14
2018-06-29T01:07:44.727Z,24.14
2018-06-29T01:08:44.718Z,24.09
2018-06-29T01:09:44.731Z,24.09
2018-06-29T01:10:44.701Z,24.12
2018-06-29T01:11:44.682Z,24.09
2018-06-29T01:12:44.674Z,24.08
2018-06-29T01:13:44.661Z,24.14
2018-06-29T01:14:44.677Z,24.09
2018-06-29T01:15:44.639Z,24.08
2018-06-29T01:16:44.626Z,24.12
2018-06-29T01:17:44.619Z,24.09
2018-06-29T01:18:44.604Z,24.05
2018-06-29T01:19:44.622Z,24.04
2018-06-29T01:20:44.583Z,24.06
2018-06-29T01:21:44.571Z,24.05
2018-06-29T01:22:44.561Z,24.05
2018-06-29T01:23:44.549Z,24.08
2018-06-29T01:24:44.562Z,24.04
2018-06-29T01:25:44.526Z,24.06
2018-06-29T01:26:44.517Z,24.08
2018-06-29T01:27:44.504Z,24.08
2018-06-29T01:28:44.534Z,24.06
2018-06-29T01:29:44.506Z,24.06
2018-06-29T01:30:44.470Z,24.09
2018-06-29T01:31:44.459Z,24.11
2018-06-29T01:32:44.450Z,24.00
2018-06-29T01:33:44.441Z,24.06
2018-06-29T01:34:44.450Z,24.00
2018-06-29T01:35:44.416Z,24.04
2018-06-29T01:36:44.403Z,24.05
2018-06-29T01:37:44.392Z,23.94
2018-06-29T01:38:44.381Z,24.05
2018-06-29T01:39:44.396Z,23.96
2018-06-29T01:40:44.359Z,23.99
2018-06-29T01:41:44.347Z,24.11
2018-06-29T01:42:44.336Z,23.99
2018-06-29T01:43:44.325Z,23.96
2018-06-29T01:44:44.339Z,24.02
2018-06-29T01:45:44.303Z,23.99
2018-06-29T01:46:44.292Z,23.97
2018-06-29T01:47:44.281Z,23.99
2018-06-29T01:48:44.269Z,23.97
2018-06-29T01:49:44.283Z,23.97
2018-06-29T01:50:44.247Z,23.99
2018-06-29T01:51:44.242Z,23.96
2018-06-29T01:52:44.294Z,23.99
2018-06-29T01:53:44.214Z,24.02
2018-06-29T01:54:44.230Z,23.92
2018-06-29T01:55:44.192Z,23.94
2018-06-29T01:56:44.187Z,23.93
2018-06-29T01:57:44.169Z,23.99
2018-06-29T01:58:44.162Z,23.92
2018-06-29T01:59:44.171Z,23.97
2018-06-29T02:00:44.137Z,23.90
2018-06-29T02:01:44.124Z,23.92
2018-06-29T02:02:44.114Z,23.92
2018-06-29T02:03:44.102Z,23.87
2018-06-29T02:04:44.118Z,23.97
2018-06-29T02:05:44.079Z,23.87
2018-06-29T02:06:44.069Z,23.92
2018-06-29T02:07:44.057Z,23.96
2018-06-29T02:08:44.047Z,23.86
2018-06-29T02:09:44.061Z,23.94
2018-06-29T02:10:44.024Z,23.94
2018-06-29T02:11:44.017Z,23.96
2018-06-29T02:12:44.003Z,23.96
2018-06-29T02:13:43.991Z,23.92
2018-06-29T02:14:44.005Z,23.97
2018-06-29T02:15:43.968Z,23.93
2018-06-29T02:16:43.956Z,23.93
2018-06-29T02:17:43.948Z,24.04
2018-06-29T02:18:43.935Z,23.86
2018-06-29T02:19:43.948Z,23.87
2018-06-29T02:20:43.914Z,23.87
2018-06-29T02:21:43.902Z,23.89
2018-06-29T02:22:43.890Z,23.86
2018-06-29T02:23:43.882Z,23.92
2018-06-29T02:24:43.894Z,23.92
2018-06-29T02:25:43.856Z,23.99
2018-06-29T02:26:43.845Z,23.93
2018-06-29T02:27:43.899Z,23.82
2018-06-29T02:28:43.826Z,23.94
2018-06-29T02:29:43.837Z,23.89
2018-06-29T02:30:43.906Z,23.93
2018-06-29T02:31:43.791Z,23.89
2018-06-29T02:32:43.780Z,23.89
2018-06-29T02:33:43.770Z,23.84
2018-06-29T02:34:43.781Z,23.92
2018-06-29T02:35:43.747Z,23.87
2018-06-29T02:36:43.734Z,23.90
2018-06-29T02:37:43.725Z,23.90
2018-06-29T02:38:43.718Z,23.93
2018-06-29T02:39:43.702Z,23.90
2018-06-29T02:40:43.723Z,23.93
2018-06-29T02:41:43.679Z,23.89
2018-06-29T02:42:43.667Z,23.89
2018-06-29T02:43:43.656Z,23.87
2018-06-29T02:44:43.647Z,23.92
2018-06-29T02:45:43.659Z,23.89
2018-06-29T02:46:43.623Z,23.94
2018-06-29T02:47:43.618Z,23.84
2018-06-29T02:48:43.601Z,23.86
2018-06-29T02:49:43.592Z,23.89
2018-06-29T02:50:43.602Z,23.93
2018-06-29T02:51:43.570Z,23.90
2018-06-29T02:52:43.556Z,23.90
2018-06-29T02:53:43.545Z,23.81
2018-06-29T02:54:43.535Z,23.81
2018-06-29T02:55:43.547Z,23.93
2018-06-29T02:56:43.517Z,23.86
2018-06-29T02:57:43.501Z,23.84
2018-06-29T02:58:43.488Z,23.84
2018-06-29T02:59:43.477Z,23.89
2018-06-29T03:00:43.491Z,23.82
2018-06-29T03:01:43.456Z,23.81
2018-06-29T03:02:43.444Z,23.84
2018-06-29T03:03:43.432Z,23.81
2018-06-29T03:04:43.448Z,23.79
2018-06-29T03:05:43.456Z,23.78
2018-06-29T03:06:43.401Z,23.77
2018-06-29T03:07:43.388Z,23.86
2018-06-29T03:08:43.376Z,23.84
2018-06-29T03:09:43.367Z,23.81
2018-06-29T03:10:43.380Z,23.82
2018-06-29T03:11:43.345Z,23.84
2018-06-29T03:12:43.333Z,23.81
2018-06-29T03:13:43.321Z,23.84
2018-06-29T03:14:43.312Z,23.79
2018-06-29T03:15:43.324Z,23.82
2018-06-29T03:16:43.291Z,23.77
2018-06-29T03:17:43.277Z,23.82
2018-06-29T03:18:43.264Z,23.78
2018-06-29T03:19:43.254Z,23.72
2018-06-29T03:20:43.267Z,23.81
2018-06-29T03:21:43.232Z,23.75
2018-06-29T03:22:43.221Z,23.78
2018-06-29T03:23:43.210Z,23.75
2018-06-29T03:24:43.198Z,23.79
2018-06-29T03:25:43.212Z,23.84
2018-06-29T03:26:43.176Z,23.78
2018-06-29T03:27:43.164Z,23.79
2018-06-29T03:28:43.153Z,23.82
2018-06-29T03:29:43.142Z,23.78
2018-06-29T03:30:43.156Z,23.79
2018-06-29T03:31:43.120Z,23.78
2018-06-29T03:32:43.111Z,23.79
2018-06-29T03:33:43.098Z,23.86
2018-06-29T03:34:43.093Z,23.79
2018-06-29T03:35:43.100Z,23.79
2018-06-29T03:36:43.065Z,23.74
2018-06-29T03:37:43.053Z,23.78
2018-06-29T03:38:43.041Z,23.79
2018-06-29T03:39:43.030Z,23.72
2018-06-29T03:40:43.114Z,23.74
2018-06-29T03:41:43.012Z,23.75
2018-06-29T03:42:42.997Z,23.72
2018-06-29T03:43:42.988Z,23.75
2018-06-29T03:44:42.975Z,23.78
2018-06-29T03:45:42.988Z,23.79
2018-06-29T03:46:42.952Z,23.79
2018-06-29T03:47:42.942Z,23.71
2018-06-29T03:48:42.931Z,23.74
2018-06-29T03:49:42.920Z,23.78
2018-06-29T03:50:42.934Z,23.84
2018-06-29T03:51:42.897Z,23.72
2018-06-29T03:52:42.886Z,23.68
2018-06-29T03:53:42.875Z,23.75
2018-06-29T03:54:42.864Z,23.79
2018-06-29T03:55:42.876Z,23.72
2018-06-29T03:56:42.842Z,23.84
2018-06-29T03:57:42.830Z,23.72
2018-06-29T03:58:42.826Z,23.72
2018-06-29T03:59:42.812Z,23.71
2018-06-29T04:00:42.822Z,23.81
2018-06-29T04:01:42.794Z,23.79
2018-06-29T04:02:42.800Z,23.72
2018-06-29T04:03:42.762Z,23.72
2018-06-29T04:04:42.751Z,23.72
2018-06-29T04:05:42.764Z,23.69
2018-06-29T04:06:42.730Z,23.72
2018-06-29T04:07:42.718Z,23.71
2018-06-29T04:08:42.707Z,23.78
2018-06-29T04:09:42.696Z,23.72
2018-06-29T04:10:42.709Z,23.72
2018-06-29T04:11:42.717Z,23.68
2018-06-29T04:12:42.665Z,23.72
2018-06-29T04:13:42.656Z,23.72
2018-06-29T04:14:42.640Z,23.72
2018-06-29T04:15:42.654Z,23.75
2018-06-29T04:16:42.618Z,23.77
2018-06-29T04:17:42.607Z,23.75
2018-06-29T04:18:42.596Z,23.75
2018-06-29T04:19:42.586Z,23.72
2018-06-29T04:20:42.598Z,23.72
2018-06-29T04:21:42.563Z,23.72
2018-06-29T04:22:42.553Z,23.72
2018-06-29T04:23:42.540Z,23.74
2018-06-29T04:24:42.530Z,23.78
2018-06-29T04:25:42.519Z,23.79
2018-06-29T04:26:42.531Z,23.72
2018-06-29T04:27:42.495Z,23.68
2018-06-29T04:28:42.483Z,23.78
2018-06-29T04:29:42.474Z,23.74
2018-06-29T04:30:42.463Z,23.71
2018-06-29T04:31:42.475Z,23.74
2018-06-29T04:32:42.460Z,23.72
2018-06-29T04:33:42.428Z,23.77
2018-06-29T04:34:42.417Z,23.69
2018-06-29T04:35:42.409Z,23.77
2018-06-29T04:36:42.419Z,23.72
2018-06-29T04:37:42.388Z,23.72
2018-06-29T04:38:42.372Z,23.72
2018-06-29T04:39:42.361Z,23.72
2018-06-29T04:40:42.353Z,23.74
2018-06-29T04:41:42.364Z,23.72
2018-06-29T04:42:42.337Z,23.72
2018-06-29T04:43:42.318Z,23.75
2018-06-29T04:44:42.306Z,23.78
2018-06-29T04:45:42.294Z,23.69
2018-06-29T04:46:42.307Z,23.71
2018-06-29T04:47:42.272Z,23.74
2018-06-29T04:48:42.260Z,23.75
2018-06-29T04:49:42.249Z,23.71
2018-06-29T04:50:42.243Z,23.72
2018-06-29T04:51:42.252Z,23.69
2018-06-29T04:52:42.216Z,23.72
2018-06-29T04:53:42.208Z,23.64
2018-06-29T04:54:42.195Z,23.74
2018-06-29T04:55:42.182Z,23.72
2018-06-29T04:56:42.197Z,23.68
2018-06-29T04:57:42.160Z,23.72
2018-06-29T04:58:42.150Z,23.78
2018-06-29T04:59:42.139Z,23.68
2018-06-29T05:00:42.128Z,23.71
2018-06-29T05:01:42.140Z,23.75
2018-06-29T05:02:42.105Z,23.77
2018-06-29T05:03:42.094Z,23.68
2018-06-29T05:04:42.083Z,23.74
2018-06-29T05:05:42.072Z,23.72
2018-06-29T05:06:42.085Z,23.71
2018-06-29T05:07:42.049Z,23.72
2018-06-29T05:08:42.039Z,23.74
2018-06-29T05:09:42.027Z,23.72
2018-06-29T05:10:42.016Z,23.72
2018-06-29T05:11:42.030Z,23.72
2018-06-29T05:12:41.994Z,23.71
2018-06-29T05:13:41.982Z,23.79
2018-06-29T05:14:41.972Z,23.72
2018-06-29T05:15:41.960Z,23.69
2018-06-29T05:16:41.974Z,23.71
2018-06-29T05:17:41.938Z,23.74
2018-06-29T05:18:41.930Z,23.74
2018-06-29T05:19:41.915Z,23.74
2018-06-29T05:20:41.905Z,23.71
2018-06-29T05:21:41.918Z,23.69
2018-06-29T05:22:41.882Z,23.68
2018-06-29T05:23:41.871Z,23.72
2018-06-29T05:24:41.859Z,23.69
2018-06-29T05:25:41.849Z,23.78
2018-06-29T05:26:41.861Z,23.74
2018-06-29T05:27:41.825Z,23.74
2018-06-29T05:28:41.905Z,23.69
2018-06-29T05:29:41.806Z,23.78
2018-06-29T05:30:41.793Z,23.75
2018-06-29T05:31:41.806Z,23.74
2018-06-29T05:32:41.770Z,23.77
2018-06-29T05:33:41.759Z,23.77
2018-06-29T05:34:41.748Z,23.69
2018-06-29T05:35:41.736Z,23.72
2018-06-29T05:36:41.750Z,23.71
2018-06-29T05:37:41.715Z,23.75
2018-06-29T05:38:41.704Z,23.77
2018-06-29T05:39:41.694Z,23.75
2018-06-29T05:40:41.681Z,23.74
2018-06-29T05:41:41.770Z,23.75
2018-06-29T05:42:41.703Z,23.69
2018-06-29T05:43:41.653Z,23.72
2018-06-29T05:44:41.637Z,23.68
2018-06-29T05:45:41.628Z,23.72
2018-06-29T05:46:41.639Z,23.72
2018-06-29T05:47:41.605Z,23.78
2018-06-29T05:48:41.593Z,23.72
2018-06-29T05:49:41.581Z,23.72
2018-06-29T05:50:41.569Z,23.78
2018-06-29T05:51:41.583Z,23.69
2018-06-29T05:52:41.551Z,23.77
2018-06-29T05:53:41.536Z,23.74
2018-06-29T05:54:41.525Z,23.75
2018-06-29T05:55:41.515Z,23.69
2018-06-29T05:56:41.527Z,23.72
2018-06-29T05:57:41.492Z,23.77
2018-06-29T05:58:41.481Z,23.74
2018-06-29T05:59:41.469Z,23.78
2018-06-29T06:00:41.458Z,23.75
2018-06-29T06:01:41.448Z,23.79
2018-06-29T06:02:41.460Z,23.71
2018-06-29T06:03:41.425Z,23.72
2018-06-29T06:04:41.481Z,23.72
2018-06-29T06:05:41.403Z,23.68
2018-06-29T06:06:41.393Z,23.75
2018-06-29T06:07:41.405Z,23.68
2018-06-29T06:08:41.371Z,23.72
2018-06-29T06:09:41.357Z,23.72
2018-06-29T06:10:41.346Z,23.79
2018-06-29T06:11:41.338Z,23.75
2018-06-29T06:12:41.349Z,23.77
2018-06-29T06:13:41.312Z,23.78
2018-06-29T06:14:41.303Z,23.68
2018-06-29T06:15:41.290Z,23.74
2018-06-29T06:16:41.281Z,23.75
2018-06-29T06:17:41.294Z,23.75
2018-06-29T06:18:41.257Z,23.75
2018-06-29T06:19:41.246Z,23.75
2018-06-29T06:20:41.234Z,23.77
2018-06-29T06:21:41.227Z,23.77
2018-06-29T06:22:41.237Z,23.75
2018-06-29T06:23:41.201Z,23.84
2018-06-29T06:24:41.194Z,23.78
2018-06-29T06:25:41.183Z,23.74
2018-06-29T06:26:41.168Z,23.78
2018-06-29T06:27:41.182Z,23.72
2018-06-29T06:28:41.147Z,23.71
2018-06-29T06:29:41.135Z,23.64
2018-06-29T06:30:41.124Z,23.60
2018-06-29T06:31:41.117Z,23.63
2018-06-29T06:32:41.126Z,23.68
2018-06-29T06:33:41.090Z,23.68
2018-06-29T06:34:41.079Z,23.64
2018-06-29T06:35:41.070Z,23.54
2018-06-29T06:36:41.058Z,23.56
2018-06-29T06:37:41.069Z,23.57
2018-06-29T06:38:41.035Z,23.50
2018-06-29T06:39:41.023Z,23.45
2018-06-29T06:40:41.012Z,23.45
2018-06-29T06:41:41.054Z,23.41
2018-06-29T06:42:41.029Z,23.42
2018-06-29T06:43:40.980Z,23.44
2018-06-29T06:44:40.969Z,23.44
2018-06-29T06:45:40.958Z,23.50
2018-06-29T06:46:40.946Z,23.39
2018-06-29T06:47:40.962Z,23.38
2018-06-29T06:48:40.933Z,23.35
2018-06-29T06:49:40.912Z,23.39
2018-06-29T06:50:40.902Z,23.41
2018-06-29T06:51:40.922Z,23.35
2018-06-29T06:52:40.904Z,23.34
2018-06-29T06:53:40.875Z,23.21
2018-06-29T06:54:40.857Z,23.31
2018-06-29T06:55:40.846Z,23.34
2018-06-29T06:56:40.834Z,23.32
2018-06-29T06:57:40.847Z,23.22
2018-06-29T06:58:40.812Z,23.35
2018-06-29T06:59:40.802Z,23.23
2018-06-29T07:00:40.789Z,23.35
2018-06-29T07:01:40.778Z,23.38
2018-06-29T07:02:40.790Z,23.34
2018-06-29T07:03:40.757Z,23.32
2018-06-29T07:04:40.744Z,23.29
2018-06-29T07:05:40.735Z,23.31
2018-06-29T07:06:40.723Z,23.31
2018-06-29T07:07:40.736Z,23.34
2018-06-29T07:08:40.700Z,23.35
2018-06-29T07:09:40.689Z,23.26
2018-06-29T07:10:40.678Z,23.32
2018-06-29T07:11:40.665Z,23.35
2018-06-29T07:12:40.683Z,23.29
2018-06-29T07:13:40.645Z,23.32
2018-06-29T07:14:40.632Z,23.25
2018-06-29T07:15:40.621Z,23.31
2018-06-29T07:16:40.609Z,23.34
2018-06-29T07:17:40.658Z,23.34
2018-06-29T07:18:40.591Z,23.35
2018-06-29T07:19:40.576Z,23.37
2018-06-29T07:20:40.564Z,23.34
2018-06-29T07:21:40.561Z,23.31
2018-06-29T07:22:40.567Z,23.26
2018-06-29T07:23:40.531Z,23.35
2018-06-29T07:24:40.519Z,23.35
2018-06-29T07:25:40.508Z,23.35
2018-06-29T07:26:40.498Z,23.38
2018-06-29T07:27:40.513Z,23.35
2018-06-29T07:28:40.474Z,23.31
2018-06-29T07:29:40.464Z,23.34
2018-06-29T07:30:40.453Z,23.32
2018-06-29T07:31:40.441Z,23.26
2018-06-29T07:32:40.452Z,23.23
2018-06-29T07:33:40.416Z,23.32
2018-06-29T07:34:40.406Z,23.29
2018-06-29T07:35:40.395Z,23.29
2018-06-29T07:36:40.385Z,23.35
2018-06-29T07:37:40.396Z,23.29
2018-06-29T07:38:40.401Z,23.32
2018-06-29T07:39:40.350Z,23.29
2018-06-29T07:40:40.338Z,23.31
2018-06-29T07:41:40.329Z,23.32
2018-06-29T07:42:40.317Z,23.32
2018-06-29T07:43:40.331Z,23.26
2018-06-29T07:44:40.295Z,23.35
2018-06-29T07:45:40.285Z,23.25
2018-06-29T07:46:40.331Z,23.22
2018-06-29T07:47:40.263Z,23.35
2018-06-29T07:48:40.271Z,23.32
2018-06-29T07:49:40.238Z,23.37
2018-06-29T07:50:40.241Z,23.37
2018-06-29T07:51:40.214Z,23.31
2018-06-29T07:52:40.220Z,23.45
2018-06-29T07:53:40.216Z,23.32
2018-06-29T07:54:40.180Z,23.39
2018-06-29T07:55:40.168Z,23.34
2018-06-29T07:56:40.158Z,23.39
2018-06-29T07:57:40.151Z,23.42
2018-06-29T07:58:40.344Z,23.35
2018-06-29T07:59:40.125Z,23.49
2018-06-29T08:00:40.112Z,23.34
2018-06-29T08:01:40.102Z,23.42
2018-06-29T08:02:40.100Z,23.35
2018-06-29T08:03:40.103Z,23.29
2018-06-29T08:04:40.068Z,23.42
2018-06-29T08:05:40.055Z,23.39
2018-06-29T08:06:40.045Z,23.41
2018-06-29T08:07:40.035Z,23.38
2018-06-29T08:08:40.051Z,23.42
2018-06-29T08:09:40.011Z,23.44
2018-06-29T08:10:40.080Z,23.45
2018-06-29T08:11:39.989Z,23.38
2018-06-29T08:12:39.982Z,23.44
2018-06-29T08:13:39.990Z,23.39
2018-06-29T08:14:39.955Z,23.42
2018-06-29T08:15:39.944Z,23.42
2018-06-29T08:16:39.933Z,23.47
2018-06-29T08:17:39.922Z,23.49
2018-06-29T08:18:39.934Z,23.42
2018-06-29T08:19:39.899Z,23.50
2018-06-29T08:20:39.890Z,23.45
2018-06-29T08:21:39.877Z,23.49
2018-06-29T08:22:39.866Z,23.50
2018-06-29T08:23:39.877Z,23.56
2018-06-29T08:24:39.842Z,23.53
2018-06-29T08:25:39.832Z,23.56
2018-06-29T08:26:39.821Z,23.60
2018-06-29T08:27:39.809Z,23.62
2018-06-29T08:28:39.821Z,23.60
2018-06-29T08:29:39.786Z,23.63
2018-06-29T08:30:39.776Z,23.62
2018-06-29T08:31:39.765Z,23.63
2018-06-29T08:32:39.754Z,23.59
2018-06-29T08:33:39.767Z,23.68
2018-06-29T08:34:39.734Z,23.67
2018-06-29T08:35:39.721Z,23.67
2018-06-29T08:36:39.708Z,23.62
2018-06-29T08:37:39.699Z,23.64
2018-06-29T08:38:39.734Z,23.60
2018-06-29T08:39:39.675Z,23.57
2018-06-29T08:40:39.677Z,23.63
2018-06-29T08:41:39.652Z,23.59
2018-06-29T08:42:39.641Z,23.64
2018-06-29T08:43:39.671Z,23.64
2018-06-29T08:44:39.620Z,23.64
2018-06-29T08:45:39.609Z,23.69
2018-06-29T08:46:39.609Z,23.71
2018-06-29T08:47:39.586Z,23.72
2018-06-29T08:48:39.599Z,23.71
2018-06-29T08:49:39.635Z,23.72
2018-06-29T08:50:39.554Z,23.77
2018-06-29T08:51:39.543Z,23.78
2018-06-29T08:52:39.530Z,23.84
2018-06-29T08:53:39.544Z,23.69
2018-06-29T08:54:39.509Z,23.75
2018-06-29T08:55:39.496Z,23.77
2018-06-29T08:56:39.485Z,23.78
2018-06-29T08:57:39.475Z,23.78
2018-06-29T08:58:39.490Z,23.75
2018-06-29T08:59:39.460Z,23.86
2018-06-29T09:00:39.443Z,23.79
2018-06-29T09:01:39.430Z,23.82
2018-06-29T09:02:39.423Z,23.92
2018-06-29T09:03:39.431Z,23.87
2018-06-29T09:04:39.397Z,23.92
2018-06-29T09:05:39.389Z,23.86
2018-06-29T09:06:39.376Z,23.86
2018-06-29T09:07:39.365Z,23.86
2018-06-29T09:08:39.375Z,23.87
2018-06-29T09:09:39.341Z,23.92
2018-06-29T09:10:39.329Z,23.92
2018-06-29T09:11:39.317Z,23.94
2018-06-29T09:12:39.308Z,23.82
2018-06-29T09:13:39.319Z,23.87
2018-06-29T09:14:39.287Z,23.92
2018-06-29T09:15:39.276Z,23.92
2018-06-29T09:16:39.263Z,23.86
2018-06-29T09:17:39.251Z,23.97
2018-06-29T09:18:39.264Z,23.89
2018-06-29T09:19:39.230Z,23.87
2018-06-29T09:20:39.218Z,23.87
2018-06-29T09:21:39.206Z,23.96
2018-06-29T09:22:39.196Z,24.02
2018-06-29T09:23:39.190Z,23.87
2018-06-29T09:24:39.198Z,24.00
2018-06-29T09:25:39.163Z,24.00
2018-06-29T09:26:39.150Z,23.96
2018-06-29T09:27:39.144Z,24.04
2018-06-29T09:28:39.169Z,23.99
2018-06-29T09:29:39.119Z,23.97
2018-06-29T09:30:39.107Z,23.97
2018-06-29T09:31:39.097Z,24.08
2018-06-29T09:32:39.086Z,24.04
2018-06-29T09:33:39.075Z,24.09
2018-06-29T09:34:39.085Z,24.08
2018-06-29T09:35:39.051Z,24.06
2018-06-29T09:36:39.041Z,24.06
2018-06-29T09:37:39.029Z,24.08
2018-06-29T09:38:39.018Z,24.04
2018-06-29T09:39:39.030Z,24.11
2018-06-29T09:40:38.996Z,24.00
2018-06-29T09:41:38.984Z,24.14
2018-06-29T09:42:39.005Z,24.12
2018-06-29T09:43:38.965Z,24.06
2018-06-29T09:44:38.973Z,24.15
2018-06-29T09:45:38.939Z,24.12
2018-06-29T09:46:38.928Z,24.12
2018-06-29T09:47:38.917Z,24.11
2018-06-29T09:48:38.920Z,24.15
2018-06-29T09:49:38.919Z,24.16
2018-06-29T09:50:38.883Z,24.15
2018-06-29T09:51:38.873Z,24.16
2018-06-29T09:52:38.861Z,24.15
2018-06-29T09:53:38.849Z,24.19
2018-06-29T09:54:38.862Z,24.23
2018-06-29T09:55:38.828Z,24.18
2018-06-29T09:56:38.818Z,24.15
2018-06-29T09:57:38.804Z,24.21
2018-06-29T09:58:38.793Z,24.31
2018-06-29T09:59:38.805Z,24.27
2018-06-29T10:00:38.864Z,24.27
2018-06-29T10:01:38.760Z,24.26
2018-06-29T10:02:39.272Z,24.27
2018-06-29T10:03:38.737Z,24.30
2018-06-29T10:04:38.752Z,24.31
2018-06-29T10:05:38.715Z,24.37
2018-06-29T10:06:38.705Z,24.48
2018-06-29T10:07:38.693Z,24.39
2018-06-29T10:08:38.684Z,24.41
2018-06-29T10:09:38.696Z,24.49
2018-06-29T10:10:38.659Z,24.45
2018-06-29T10:11:38.647Z,24.59
2018-06-29T10:12:38.641Z,24.56
2018-06-29T10:13:38.625Z,24.53
2018-06-29T10:14:38.639Z,24.51
2018-06-29T10:15:38.604Z,24.55
2018-06-29T10:16:38.594Z,24.51
2018-06-29T10:17:38.581Z,24.55
2018-06-29T10:18:38.570Z,24.61
2018-06-29T10:19:38.727Z,24.59
2018-06-29T10:20:38.550Z,24.66
2018-06-29T10:21:38.536Z,24.61
2018-06-29T10:22:38.525Z,24.64
2018-06-29T10:23:38.513Z,24.60
2018-06-29T10:24:38.528Z,24.61
2018-06-29T10:25:38.492Z,24.70
2018-06-29T10:26:38.489Z,24.67
2018-06-29T10:27:38.469Z,24.59
2018-06-29T10:28:38.457Z,24.66
2018-06-29T10:29:38.470Z,24.68
2018-06-29T10:30:38.435Z,24.71
2018-06-29T10:31:38.428Z,24.66
2018-06-29T10:32:38.413Z,24.75
2018-06-29T10:33:38.401Z,24.64
2018-06-29T10:34:38.415Z,24.67
2018-06-29T10:35:38.380Z,24.75
2018-06-29T10:36:38.374Z,24.68
2018-06-29T10:37:38.362Z,24.67
2018-06-29T10:38:38.345Z,24.70
2018-06-29T10:39:38.359Z,24.67
2018-06-29T10:40:38.324Z,24.79
2018-06-29T10:41:38.315Z,24.77
2018-06-29T10:42:38.301Z,24.66
2018-06-29T10:43:38.315Z,24.70
2018-06-29T10:44:38.313Z,24.80
2018-06-29T10:45:38.266Z,24.67
2018-06-29T10:46:38.256Z,24.67
2018-06-29T10:47:38.245Z,24.79
2018-06-29T10:48:38.233Z,24.80
2018-06-29T10:49:38.246Z,24.75
2018-06-29T10:50:38.211Z,24.80
2018-06-29T10:51:38.201Z,24.83
2018-06-29T10:52:38.188Z,24.82
2018-06-29T10:53:38.178Z,24.77
2018-06-29T10:54:38.189Z,24.86
2018-06-29T10:55:38.156Z,24.82
2018-06-29T10:56:38.146Z,24.79
2018-06-29T10:57:38.135Z,24.80
2018-06-29T10:58:38.144Z,24.77
2018-06-29T10:59:38.135Z,24.75
2018-06-29T11:00:38.100Z,24.83
2018-06-29T11:01:38.089Z,24.71
2018-06-29T11:02:38.077Z,24.87
2018-06-29T11:03:38.066Z,24.83
2018-06-29T11:04:38.078Z,24.86
2018-06-29T11:05:38.133Z,24.87
2018-06-29T11:06:38.037Z,24.84
2018-06-29T11:07:38.021Z,24.93
2018-06-29T11:08:38.011Z,24.89
2018-06-29T11:09:38.000Z,24.84
2018-06-29T11:10:38.012Z,24.86
2018-06-29T11:11:37.980Z,24.89
2018-06-29T11:12:37.965Z,24.94
2018-06-29T11:13:37.953Z,24.90
2018-06-29T11:14:37.944Z,24.98
2018-06-29T11:15:37.954Z,24.89
2018-06-29T11:16:37.920Z,24.97
2018-06-29T11:17:37.909Z,24.93
2018-06-29T11:18:37.898Z,24.93
2018-06-29T11:19:37.887Z,24.90
2018-06-29T11:20:37.898Z,24.93
2018-06-29T11:21:37.865Z,25.01
2018-06-29T11:22:37.903Z,24.98
2018-06-29T11:23:37.841Z,24.97
2018-06-29T11:24:37.831Z,25.01
2018-06-29T11:25:37.844Z,24.99
2018-06-29T11:26:37.808Z,25.02
2018-06-29T11:27:37.797Z,25.04
2018-06-29T11:28:37.785Z,24.99
2018-06-29T11:29:37.779Z,25.04
2018-06-29T11:30:37.788Z,25.04
2018-06-29T11:31:37.752Z,25.09
2018-06-29T11:32:37.740Z,25.09
2018-06-29T11:33:37.730Z,25.07
2018-06-29T11:34:37.718Z,25.11
2018-06-29T11:35:37.740Z,25.51
2018-06-29T11:36:37.706Z,25.93
2018-06-29T11:37:37.696Z,26.39
2018-06-29T11:38:37.675Z,26.88
2018-06-29T11:39:37.663Z,27.61
2018-06-29T11:40:37.684Z,28.30
2018-06-29T11:41:37.641Z,29.10
2018-06-29T11:42:37.668Z,29.81
2018-06-29T11:43:37.619Z,30.44
2018-06-29T11:44:37.610Z,31.10
2018-06-29T11:45:37.635Z,31.69
2018-06-29T11:46:37.585Z,32.25
2018-06-29T11:47:37.574Z,32.65
2018-06-29T11:48:37.572Z,33.14
2018-06-29T11:49:37.553Z,33.53
2018-06-29T11:50:37.567Z,33.94
2018-06-29T11:51:37.531Z,34.27
2018-06-29T11:52:37.523Z,34.64
2018-06-29T11:53:37.510Z,34.84
2018-06-29T11:54:37.500Z,35.15
2018-06-29T11:55:37.521Z,35.52
2018-06-29T11:56:37.480Z,35.89
2018-06-29T11:57:37.470Z,36.12
2018-06-29T11:58:37.461Z,36.38
2018-06-29T11:59:37.454Z,36.72
2018-06-29T12:00:37.527Z,36.83
2018-06-29T12:01:37.429Z,37.16
2018-06-29T12:02:37.422Z,37.38
2018-06-29T12:03:37.412Z,37.49
2018-06-29T12:04:37.400Z,37.77
2018-06-29T12:05:37.417Z,37.97
2018-06-29T12:06:37.383Z,38.22
2018-06-29T12:07:37.372Z,38.37
2018-06-29T12:08:37.363Z,38.56
2018-06-29T12:09:37.370Z,38.81
2018-06-29T12:10:37.369Z,38.68
2018-06-29T12:11:37.351Z,38.77
2018-06-29T12:12:37.327Z,39.00
2018-06-29T12:13:37.320Z,39.27
2018-06-29T12:14:37.372Z,39.43
2018-06-29T12:15:37.329Z,39.54
2018-06-29T12:16:37.291Z,39.82
2018-06-29T12:17:37.301Z,40.00
2018-06-29T12:18:37.274Z,40.19
2018-06-29T12:19:37.267Z,40.44
2018-06-29T12:20:37.337Z,40.61
2018-06-29T12:21:37.293Z,40.78
2018-06-29T12:22:37.247Z,40.75
2018-06-29T12:23:37.235Z,40.82
2018-06-29T12:24:37.229Z,40.92
2018-06-29T12:25:37.341Z,40.98
2018-06-29T12:26:37.211Z,41.07
2018-06-29T12:27:37.225Z,41.13
2018-06-29T12:28:37.193Z,41.20
2018-06-29T12:29:37.208Z,41.23
2018-06-29T12:30:37.199Z,41.39
2018-06-29T12:31:37.165Z,41.47
2018-06-29T12:32:37.210Z,41.62
2018-06-29T12:33:37.154Z,41.63
2018-06-29T12:34:37.143Z,41.63
2018-06-29T12:35:37.159Z,41.67
2018-06-29T12:36:37.128Z,41.80
2018-06-29T12:37:37.168Z,41.76
2018-06-29T12:38:37.112Z,41.85
2018-06-29T12:39:37.109Z,41.97
2018-06-29T12:40:37.121Z,42.12
2018-06-29T12:41:37.089Z,42.20
2018-06-29T12:42:37.083Z,42.30
2018-06-29T12:43:37.206Z,42.45
2018-06-29T12:44:37.067Z,42.30
2018-06-29T12:45:37.088Z,42.33
2018-06-29T12:46:37.054Z,42.34
2018-06-29T12:47:37.044Z,42.45
2018-06-29T12:48:37.036Z,42.54
2018-06-29T12:49:37.114Z,42.62
2018-06-29T12:50:37.024Z,42.84
2018-06-29T12:51:37.107Z,42.99
2018-06-29T12:52:37.005Z,42.99